Terminal Aerodrome Forecast
Issued by NWS

Home | Current Version | Previous Version | Text Only | Print | Product List | Glossary On
Versions: 1 2 3 4 5 6 7 8 9 10 11 12 13 14 15 16
473
FTUS44 KTSA 292320
TAFRVS
TAF
KRVS 292320Z 3000/3024 36004KT P6SM FEW050 BKN250
     FM300200 04005KT P6SM SCT050 BKN250
     FM301000 09004KT P6SM BKN050 PROB30 3010/3016 5SM -TSRA
      BKN025CB
     FM301600 13007KT P6SM SCT025 BKN250=

USA.gov is the U.S. government's official web portal to all federal, state and local government web resources and services.